sensor_id;sensor_type;location;lat;lon;timestamp;P1;durP1;ratioP1;P2;durP2;ratioP2
2622;SDS011;1321;48.690;9.022;2023-07-16T00:02:09;13.50;;;13.10;;
2622;SDS011;1321;48.690;9.022;2023-07-16T00:04:37;13.53;;;13.03;;
2622;SDS011;1321;48.690;9.022;2023-07-16T00:07:07;13.53;;;13.13;;
2622;SDS011;1321;48.690;9.022;2023-07-16T00:09:36;13.80;;;13.30;;
2622;SDS011;1321;48.690;9.022;2023-07-16T00:12:05;13.57;;;13.23;;
2622;SDS011;1321;48.690;9.022;2023-07-16T00:14:35;13.90;;;13.50;;
2622;SDS011;1321;48.690;9.022;2023-07-16T00:17:03;13.97;;;13.57;;
2622;SDS011;1321;48.690;9.022;2023-07-16T00:19:31;13.87;;;13.37;;
2622;SDS011;1321;48.690;9.022;2023-07-16T00:21:59;13.60;;;13.30;;
2622;SDS011;1321;48.690;9.022;2023-07-16T00:24:29;13.97;;;13.47;;
2622;SDS011;1321;48.690;9.022;2023-07-16T00:26:57;13.70;;;13.40;;
2622;SDS011;1321;48.690;9.022;2023-07-16T00:29:25;13.23;;;12.73;;
2622;SDS011;1321;48.690;9.022;2023-07-16T00:31:54;13.53;;;13.10;;
2622;SDS011;1321;48.690;9.022;2023-07-16T00:34:22;13.30;;;12.90;;
2622;SDS011;1321;48.690;9.022;2023-07-16T00:36:50;13.30;;;13.00;;
2622;SDS011;1321;48.690;9.022;2023-07-16T00:39:19;13.30;;;12.90;;
2622;SDS011;1321;48.690;9.022;2023-07-16T00:41:48;13.30;;;13.00;;
2622;SDS011;1321;48.690;9.022;2023-07-16T00:44:16;13.10;;;12.80;;
2622;SDS011;1321;48.690;9.022;2023-07-16T00:46:44;12.90;;;12.60;;
2622;SDS011;1321;48.690;9.022;2023-07-16T00:49:13;13.23;;;12.93;;
2622;SDS011;1321;48.690;9.022;2023-07-16T00:51:41;13.60;;;13.20;;
2622;SDS011;1321;48.690;9.022;2023-07-16T00:54:10;13.40;;;12.90;;
2622;SDS011;1321;48.690;9.022;2023-07-16T00:56:39;13.23;;;12.83;;
2622;SDS011;1321;48.690;9.022;2023-07-16T00:59:08;12.83;;;12.53;;
2622;SDS011;1321;48.690;9.022;2023-07-16T01:01:37;13.40;;;13.00;;
2622;SDS011;1321;48.690;9.022;2023-07-16T01:04:06;13.43;;;13.03;;
2622;SDS011;1321;48.690;9.022;2023-07-16T01:06:35;13.63;;;13.13;;
2622;SDS011;1321;48.690;9.022;2023-07-16T01:09:07;13.30;;;13.00;;
2622;SDS011;1321;48.690;9.022;2023-07-16T01:11:38;13.53;;;13.13;;
2622;SDS011;1321;48.690;9.022;2023-07-16T01:14:10;13.20;;;12.80;;
2622;SDS011;1321;48.690;9.022;2023-07-16T01:16:40;13.10;;;12.80;;
2622;SDS011;1321;48.690;9.022;2023-07-16T01:19:09;13.37;;;12.97;;
2622;SDS011;1321;48.690;9.022;2023-07-16T01:21:42;13.70;;;13.20;;
2622;SDS011;1321;48.690;9.022;2023-07-16T01:24:27;13.20;;;12.80;;
2622;SDS011;1321;48.690;9.022;2023-07-16T01:27:22;13.03;;;12.73;;
2622;SDS011;1321;48.690;9.022;2023-07-16T01:30:14;12.87;;;12.53;;
2622;SDS011;1321;48.690;9.022;2023-07-16T01:32:43;13.17;;;12.87;;
2622;SDS011;1321;48.690;9.022;2023-07-16T01:35:13;12.60;;;12.30;;
2622;SDS011;1321;48.690;9.022;2023-07-16T01:37:42;12.90;;;12.60;;
2622;SDS011;1321;48.690;9.022;2023-07-16T01:40:10;13.33;;;12.93;;
2622;SDS011;1321;48.690;9.022;2023-07-16T01:42:39;13.30;;;12.90;;
2622;SDS011;1321;48.690;9.022;2023-07-16T01:45:08;13.00;;;12.70;;
2622;SDS011;1321;48.690;9.022;2023-07-16T01:47:43;13.47;;;13.00;;
2622;SDS011;1321;48.690;9.022;2023-07-16T01:50:19;13.10;;;12.80;;
2622;SDS011;1321;48.690;9.022;2023-07-16T01:52:47;13.33;;;12.93;;
2622;SDS011;1321;48.690;9.022;2023-07-16T01:55:15;13.00;;;12.70;;
2622;SDS011;1321;48.690;9.022;2023-07-16T01:57:44;13.50;;;13.17;;
2622;SDS011;1321;48.690;9.022;2023-07-16T02:00:12;13.00;;;12.70;;
2622;SDS011;1321;48.690;9.022;2023-07-16T02:02:42;13.40;;;13.10;;
2622;SDS011;1321;48.690;9.022;2023-07-16T02:05:10;13.30;;;12.87;;
2622;SDS011;1321;48.690;9.022;2023-07-16T02:07:38;13.30;;;13.00;;
2622;SDS011;1321;48.690;9.022;2023-07-16T02:10:07;13.60;;;13.20;;
2622;SDS011;1321;48.690;9.022;2023-07-16T02:12:35;13.60;;;13.07;;
2622;SDS011;1321;48.690;9.022;2023-07-16T02:15:04;13.30;;;13.00;;
2622;SDS011;1321;48.690;9.022;2023-07-16T02:17:33;13.20;;;12.90;;
2622;SDS011;1321;48.690;9.022;2023-07-16T02:20:03;13.30;;;13.00;;
2622;SDS011;1321;48.690;9.022;2023-07-16T02:22:33;13.60;;;13.20;;
2622;SDS011;1321;48.690;9.022;2023-07-16T02:25:02;13.37;;;13.07;;
2622;SDS011;1321;48.690;9.022;2023-07-16T02:27:31;13.70;;;13.30;;
2622;SDS011;1321;48.690;9.022;2023-07-16T02:29:59;13.80;;;13.30;;
2622;SDS011;1321;48.690;9.022;2023-07-16T02:32:28;13.53;;;13.23;;
2622;SDS011;1321;48.690;9.022;2023-07-16T02:34:56;13.20;;;12.90;;
2622;SDS011;1321;48.690;9.022;2023-07-16T02:37:25;13.70;;;13.30;;
2622;SDS011;1321;48.690;9.022;2023-07-16T02:39:54;13.60;;;13.30;;
2622;SDS011;1321;48.690;9.022;2023-07-16T02:42:22;13.10;;;12.80;;
2622;SDS011;1321;48.690;9.022;2023-07-16T02:44:50;13.50;;;13.00;;
2622;SDS011;1321;48.690;9.022;2023-07-16T02:47:18;13.37;;;13.07;;
2622;SDS011;1321;48.690;9.022;2023-07-16T02:49:50;13.40;;;13.00;;
2622;SDS011;1321;48.690;9.022;2023-07-16T02:52:18;13.50;;;13.10;;
2622;SDS011;1321;48.690;9.022;2023-07-16T02:54:48;13.53;;;13.13;;
2622;SDS011;1321;48.690;9.022;2023-07-16T02:57:16;13.50;;;13.10;;
2622;SDS011;1321;48.690;9.022;2023-07-16T02:59:44;13.47;;;13.03;;
2622;SDS011;1321;48.690;9.022;2023-07-16T03:02:12;13.50;;;13.20;;
2622;SDS011;1321;48.690;9.022;2023-07-16T03:04:40;13.17;;;12.87;;
2622;SDS011;1321;48.690;9.022;2023-07-16T03:07:09;13.40;;;13.10;;
2622;SDS011;1321;48.690;9.022;2023-07-16T03:09:37;13.60;;;13.07;;
2622;SDS011;1321;48.690;9.022;2023-07-16T03:12:07;13.07;;;12.67;;
2622;SDS011;1321;48.690;9.022;2023-07-16T03:14:36;13.10;;;12.73;;
2622;SDS011;1321;48.690;9.022;2023-07-16T03:17:04;13.17;;;12.80;;
2622;SDS011;1321;48.690;9.022;2023-07-16T03:19:33;13.63;;;13.13;;
2622;SDS011;1321;48.690;9.022;2023-07-16T03:22:01;13.40;;;13.00;;
2622;SDS011;1321;48.690;9.022;2023-07-16T03:24:30;13.30;;;12.80;;
2622;SDS011;1321;48.690;9.022;2023-07-16T03:26:58;14.10;;;13.50;;
2622;SDS011;1321;48.690;9.022;2023-07-16T03:29:44;13.80;;;13.40;;
2622;SDS011;1321;48.690;9.022;2023-07-16T03:32:12;14.60;;;13.90;;
2622;SDS011;1321;48.690;9.022;2023-07-16T03:34:40;13.77;;;13.27;;
2622;SDS011;1321;48.690;9.022;2023-07-16T03:37:09;13.07;;;12.67;;
2622;SDS011;1321;48.690;9.022;2023-07-16T03:39:37;13.40;;;13.00;;
2622;SDS011;1321;48.690;9.022;2023-07-16T03:42:05;13.10;;;12.80;;
2622;SDS011;1321;48.690;9.022;2023-07-16T03:44:33;14.13;;;13.37;;
2622;SDS011;1321;48.690;9.022;2023-07-16T03:47:03;13.43;;;13.03;;
2622;SDS011;1321;48.690;9.022;2023-07-16T03:49:32;13.43;;;12.93;;
2622;SDS011;1321;48.690;9.022;2023-07-16T03:52:00;13.70;;;13.20;;
2622;SDS011;1321;48.690;9.022;2023-07-16T03:54:28;14.07;;;13.67;;
2622;SDS011;1321;48.690;9.022;2023-07-16T03:56:56;14.20;;;13.80;;
2622;SDS011;1321;48.690;9.022;2023-07-16T03:59:24;14.00;;;13.60;;
2622;SDS011;1321;48.690;9.022;2023-07-16T04:01:52;13.83;;;13.30;;
2622;SDS011;1321;48.690;9.022;2023-07-16T04:04:22;14.00;;;13.60;;
2622;SDS011;1321;48.690;9.022;2023-07-16T04:06:50;13.63;;;13.23;;
2622;SDS011;1321;48.690;9.022;2023-07-16T04:09:18;13.73;;;13.23;;
2622;SDS011;1321;48.690;9.022;2023-07-16T04:11:46;13.43;;;13.13;;
2622;SDS011;1321;48.690;9.022;2023-07-16T04:14:14;13.67;;;13.27;;
2622;SDS011;1321;48.690;9.022;2023-07-16T04:16:43;13.50;;;13.20;;
2622;SDS011;1321;48.690;9.022;2023-07-16T04:19:11;13.60;;;13.20;;
2622;SDS011;1321;48.690;9.022;2023-07-16T04:21:41;13.80;;;13.40;;
2622;SDS011;1321;48.690;9.022;2023-07-16T04:24:09;13.60;;;13.30;;
2622;SDS011;1321;48.690;9.022;2023-07-16T04:26:37;13.90;;;13.40;;
2622;SDS011;1321;48.690;9.022;2023-07-16T04:29:05;13.73;;;13.33;;
2622;SDS011;1321;48.690;9.022;2023-07-16T04:31:33;13.70;;;13.30;;
2622;SDS011;1321;48.690;9.022;2023-07-16T04:34:02;13.87;;;13.47;;
2622;SDS011;1321;48.690;9.022;2023-07-16T04:36:30;13.80;;;13.40;;
2622;SDS011;1321;48.690;9.022;2023-07-16T04:39:00;13.80;;;13.37;;
2622;SDS011;1321;48.690;9.022;2023-07-16T04:41:28;13.77;;;13.37;;
2622;SDS011;1321;48.690;9.022;2023-07-16T04:43:56;14.27;;;13.77;;
2622;SDS011;1321;48.690;9.022;2023-07-16T04:46:24;14.40;;;13.70;;
2622;SDS011;1321;48.690;9.022;2023-07-16T04:48:53;13.97;;;13.50;;
2622;SDS011;1321;48.690;9.022;2023-07-16T04:51:21;14.20;;;13.70;;
2622;SDS011;1321;48.690;9.022;2023-07-16T04:53:49;13.40;;;13.10;;
2622;SDS011;1321;48.690;9.022;2023-07-16T04:56:19;14.23;;;13.83;;
2622;SDS011;1321;48.690;9.022;2023-07-16T04:58:47;14.00;;;13.40;;
2622;SDS011;1321;48.690;9.022;2023-07-16T05:01:15;13.90;;;13.23;;
2622;SDS011;1321;48.690;9.022;2023-07-16T05:03:43;14.13;;;13.50;;
2622;SDS011;1321;48.690;9.022;2023-07-16T05:06:12;14.17;;;13.53;;
2622;SDS011;1321;48.690;9.022;2023-07-16T05:08:40;14.83;;;13.60;;
2622;SDS011;1321;48.690;9.022;2023-07-16T05:11:10;14.00;;;13.50;;
2622;SDS011;1321;48.690;9.022;2023-07-16T05:13:41;13.63;;;13.23;;
2622;SDS011;1321;48.690;9.022;2023-07-16T05:16:09;13.67;;;13.17;;
2622;SDS011;1321;48.690;9.022;2023-07-16T05:18:38;14.30;;;13.57;;
2622;SDS011;1321;48.690;9.022;2023-07-16T05:21:06;14.40;;;13.80;;
2622;SDS011;1321;48.690;9.022;2023-07-16T05:23:35;14.30;;;13.60;;
2622;SDS011;1321;48.690;9.022;2023-07-16T05:26:03;14.47;;;13.97;;
2622;SDS011;1321;48.690;9.022;2023-07-16T05:28:31;14.77;;;14.20;;
2622;SDS011;1321;48.690;9.022;2023-07-16T05:31:01;15.10;;;14.50;;
2622;SDS011;1321;48.690;9.022;2023-07-16T05:33:30;14.70;;;14.10;;
2622;SDS011;1321;48.690;9.022;2023-07-16T05:35:58;14.23;;;13.47;;
2622;SDS011;1321;48.690;9.022;2023-07-16T05:38:26;14.40;;;13.90;;
2622;SDS011;1321;48.690;9.022;2023-07-16T05:40:59;14.13;;;13.57;;
2622;SDS011;1321;48.690;9.022;2023-07-16T05:43:28;13.93;;;13.50;;
2622;SDS011;1321;48.690;9.022;2023-07-16T05:45:56;14.33;;;13.60;;
2622;SDS011;1321;48.690;9.022;2023-07-16T05:48:26;14.63;;;14.13;;
2622;SDS011;1321;48.690;9.022;2023-07-16T05:50:54;14.27;;;13.80;;
2622;SDS011;1321;48.690;9.022;2023-07-16T05:53:23;14.53;;;13.93;;
2622;SDS011;1321;48.690;9.022;2023-07-16T05:55:51;14.47;;;13.83;;
2622;SDS011;1321;48.690;9.022;2023-07-16T05:58:19;14.00;;;13.50;;
2622;SDS011;1321;48.690;9.022;2023-07-16T06:00:48;14.20;;;13.50;;
2622;SDS011;1321;48.690;9.022;2023-07-16T06:03:21;14.27;;;13.40;;
2622;SDS011;1321;48.690;9.022;2023-07-16T06:05:51;13.80;;;13.30;;
2622;SDS011;1321;48.690;9.022;2023-07-16T06:08:19;13.90;;;13.30;;
2622;SDS011;1321;48.690;9.022;2023-07-16T06:10:47;14.00;;;13.50;;
2622;SDS011;1321;48.690;9.022;2023-07-16T06:13:16;14.33;;;13.73;;
2622;SDS011;1321;48.690;9.022;2023-07-16T06:15:44;14.03;;;13.43;;
2622;SDS011;1321;48.690;9.022;2023-07-16T06:21:35;13.73;;;13.33;;
2622;SDS011;1321;48.690;9.022;2023-07-16T06:24:03;14.80;;;14.20;;
2622;SDS011;1321;48.690;9.022;2023-07-16T06:26:53;14.80;;;14.10;;
2622;SDS011;1321;48.690;9.022;2023-07-16T06:29:26;14.67;;;13.80;;
2622;SDS011;1321;48.690;9.022;2023-07-16T06:32:49;14.67;;;13.97;;
2622;SDS011;1321;48.690;9.022;2023-07-16T06:35:17;14.00;;;13.50;;
2622;SDS011;1321;48.690;9.022;2023-07-16T06:40:47;13.97;;;13.50;;
2622;SDS011;1321;48.690;9.022;2023-07-16T06:43:17;15.43;;;14.20;;
2622;SDS011;1321;48.690;9.022;2023-07-16T06:45:45;14.07;;;13.57;;
2622;SDS011;1321;48.690;9.022;2023-07-16T06:48:14;15.00;;;14.13;;
2622;SDS011;1321;48.690;9.022;2023-07-16T06:50:42;13.80;;;13.17;;
2622;SDS011;1321;48.690;9.022;2023-07-16T06:53:10;13.80;;;13.40;;
2622;SDS011;1321;48.690;9.022;2023-07-16T06:55:40;13.87;;;13.43;;
2622;SDS011;1321;48.690;9.022;2023-07-16T06:58:09;14.10;;;13.60;;
2622;SDS011;1321;48.690;9.022;2023-07-16T07:00:38;13.87;;;13.47;;
2622;SDS011;1321;48.690;9.022;2023-07-16T07:03:06;13.93;;;13.33;;
2622;SDS011;1321;48.690;9.022;2023-07-16T07:05:34;14.00;;;13.60;;
2622;SDS011;1321;48.690;9.022;2023-07-16T07:08:03;13.20;;;12.80;;
2622;SDS011;1321;48.690;9.022;2023-07-16T07:10:31;14.57;;;13.60;;
2622;SDS011;1321;48.690;9.022;2023-07-16T07:13:02;13.93;;;13.30;;
2622;SDS011;1321;48.690;9.022;2023-07-16T07:15:31;13.37;;;12.97;;
2622;SDS011;1321;48.690;9.022;2023-07-16T07:17:59;13.60;;;13.20;;
2622;SDS011;1321;48.690;9.022;2023-07-16T07:20:27;13.00;;;12.63;;
2622;SDS011;1321;48.690;9.022;2023-07-16T07:22:55;14.60;;;13.90;;
2622;SDS011;1321;48.690;9.022;2023-07-16T07:25:23;14.57;;;13.80;;
2622;SDS011;1321;48.690;9.022;2023-07-16T07:27:51;14.10;;;13.60;;
2622;SDS011;1321;48.690;9.022;2023-07-16T07:30:21;13.87;;;13.37;;
2622;SDS011;1321;48.690;9.022;2023-07-16T07:32:49;13.90;;;13.40;;
2622;SDS011;1321;48.690;9.022;2023-07-16T07:35:17;13.83;;;13.33;;
2622;SDS011;1321;48.690;9.022;2023-07-16T07:37:45;14.30;;;13.70;;
2622;SDS011;1321;48.690;9.022;2023-07-16T07:40:13;13.23;;;12.73;;
2622;SDS011;1321;48.690;9.022;2023-07-16T07:42:41;13.87;;;13.27;;
2622;SDS011;1321;48.690;9.022;2023-07-16T07:45:10;13.38;;;12.88;;
2622;SDS011;1321;48.690;9.022;2023-07-16T07:47:39;13.53;;;13.13;;
2622;SDS011;1321;48.690;9.022;2023-07-16T07:50:08;13.50;;;13.10;;
2622;SDS011;1321;48.690;9.022;2023-07-16T07:52:36;14.10;;;13.50;;
2622;SDS011;1321;48.690;9.022;2023-07-16T07:55:05;15.00;;;14.10;;
2622;SDS011;1321;48.690;9.022;2023-07-16T07:57:33;14.80;;;14.17;;
2622;SDS011;1321;48.690;9.022;2023-07-16T08:00:02;14.00;;;13.40;;
2622;SDS011;1321;48.690;9.022;2023-07-16T08:02:30;13.80;;;13.30;;
2622;SDS011;1321;48.690;9.022;2023-07-16T08:05:00;13.00;;;12.60;;
2622;SDS011;1321;48.690;9.022;2023-07-16T08:07:31;14.07;;;13.40;;
2622;SDS011;1321;48.690;9.022;2023-07-16T08:09:59;13.73;;;13.23;;
2622;SDS011;1321;48.690;9.022;2023-07-16T08:12:27;13.90;;;13.23;;
2622;SDS011;1321;48.690;9.022;2023-07-16T08:14:57;13.17;;;12.50;;
2622;SDS011;1321;48.690;9.022;2023-07-16T08:17:26;13.90;;;13.40;;
2622;SDS011;1321;48.690;9.022;2023-07-16T08:19:54;14.30;;;13.73;;
2622;SDS011;1321;48.690;9.022;2023-07-16T08:22:23;13.43;;;13.03;;
2622;SDS011;1321;48.690;9.022;2023-07-16T08:24:52;12.80;;;12.40;;
2622;SDS011;1321;48.690;9.022;2023-07-16T08:27:20;13.27;;;12.87;;
2622;SDS011;1321;48.690;9.022;2023-07-16T08:29:48;13.63;;;13.13;;
2622;SDS011;1321;48.690;9.022;2023-07-16T08:32:16;13.40;;;12.90;;
2622;SDS011;1321;48.690;9.022;2023-07-16T08:34:44;13.20;;;12.60;;
2622;SDS011;1321;48.690;9.022;2023-07-16T08:37:12;13.30;;;12.90;;
2622;SDS011;1321;48.690;9.022;2023-07-16T08:39:42;13.67;;;12.90;;
2622;SDS011;1321;48.690;9.022;2023-07-16T08:42:10;13.27;;;12.83;;
2622;SDS011;1321;48.690;9.022;2023-07-16T08:44:39;13.10;;;12.60;;
2622;SDS011;1321;48.690;9.022;2023-07-16T08:47:08;12.67;;;12.20;;
2622;SDS011;1321;48.690;9.022;2023-07-16T08:49:36;12.60;;;12.10;;
2622;SDS011;1321;48.690;9.022;2023-07-16T08:52:07;12.00;;;11.60;;
2622;SDS011;1321;48.690;9.022;2023-07-16T08:54:37;12.50;;;12.10;;
2622;SDS011;1321;48.690;9.022;2023-07-16T08:57:09;12.90;;;12.40;;
2622;SDS011;1321;48.690;9.022;2023-07-16T08:59:38;12.83;;;12.33;;
2622;SDS011;1321;48.690;9.022;2023-07-16T09:02:06;13.30;;;12.80;;
2622;SDS011;1321;48.690;9.022;2023-07-16T09:04:42;12.33;;;11.83;;
2622;SDS011;1321;48.690;9.022;2023-07-16T09:07:39;12.30;;;11.90;;
2622;SDS011;1321;48.690;9.022;2023-07-16T09:10:08;12.50;;;12.00;;
2622;SDS011;1321;48.690;9.022;2023-07-16T09:12:45;12.43;;;12.03;;
2622;SDS011;1321;48.690;9.022;2023-07-16T09:15:16;12.97;;;12.33;;
2622;SDS011;1321;48.690;9.022;2023-07-16T09:17:49;12.90;;;12.30;;
2622;SDS011;1321;48.690;9.022;2023-07-16T09:20:24;13.30;;;12.80;;
2622;SDS011;1321;48.690;9.022;2023-07-16T09:22:58;11.80;;;11.50;;
2622;SDS011;1321;48.690;9.022;2023-07-16T09:25:32;12.90;;;12.50;;
2622;SDS011;1321;48.690;9.022;2023-07-16T09:28:03;13.23;;;12.83;;
2622;SDS011;1321;48.690;9.022;2023-07-16T09:30:32;12.40;;;12.10;;
2622;SDS011;1321;48.690;9.022;2023-07-16T09:33:09;12.43;;;12.03;;
2622;SDS011;1321;48.690;9.022;2023-07-16T09:35:41;12.80;;;12.30;;
2622;SDS011;1321;48.690;9.022;2023-07-16T09:38:11;12.90;;;12.50;;
2622;SDS011;1321;48.690;9.022;2023-07-16T09:40:39;12.90;;;12.60;;
2622;SDS011;1321;48.690;9.022;2023-07-16T09:43:10;12.10;;;11.80;;
2622;SDS011;1321;48.690;9.022;2023-07-16T09:45:39;12.30;;;11.90;;
2622;SDS011;1321;48.690;9.022;2023-07-16T09:48:08;12.50;;;12.10;;
2622;SDS011;1321;48.690;9.022;2023-07-16T09:50:36;12.77;;;12.13;;
2622;SDS011;1321;48.690;9.022;2023-07-16T09:53:07;12.90;;;12.40;;
2622;SDS011;1321;48.690;9.022;2023-07-16T09:55:38;13.07;;;12.57;;
2622;SDS011;1321;48.690;9.022;2023-07-16T09:58:08;12.00;;;11.70;;
2622;SDS011;1321;48.690;9.022;2023-07-16T10:00:39;12.67;;;12.27;;
2622;SDS011;1321;48.690;9.022;2023-07-16T10:03:22;13.17;;;12.70;;
2622;SDS011;1321;48.690;9.022;2023-07-16T10:06:05;13.03;;;12.43;;
2622;SDS011;1321;48.690;9.022;2023-07-16T10:08:34;12.67;;;12.27;;
2622;SDS011;1321;48.690;9.022;2023-07-16T10:42:06;13.00;;;12.50;;
2622;SDS011;1321;48.690;9.022;2023-07-16T10:44:34;13.40;;;12.83;;
2622;SDS011;1321;48.690;9.022;2023-07-16T10:47:02;12.40;;;11.97;;
2622;SDS011;1321;48.690;9.022;2023-07-16T10:49:31;12.87;;;12.47;;
2622;SDS011;1321;48.690;9.022;2023-07-16T10:59:22;12.20;;;11.70;;
2622;SDS011;1321;48.690;9.022;2023-07-16T11:01:52;11.73;;;11.30;;
2622;SDS011;1321;48.690;9.022;2023-07-16T11:04:50;12.33;;;11.93;;
2622;SDS011;1321;48.690;9.022;2023-07-16T11:07:27;12.40;;;12.10;;
2622;SDS011;1321;48.690;9.022;2023-07-16T11:10:53;12.37;;;11.97;;
2622;SDS011;1321;48.690;9.022;2023-07-16T11:14:04;12.57;;;12.17;;
2622;SDS011;1321;48.690;9.022;2023-07-16T11:16:34;13.00;;;12.60;;
2622;SDS011;1321;48.690;9.022;2023-07-16T11:19:03;12.90;;;12.47;;
2622;SDS011;1321;48.690;9.022;2023-07-16T11:21:33;13.03;;;12.47;;
2622;SDS011;1321;48.690;9.022;2023-07-16T11:24:07;12.63;;;12.23;;
2622;SDS011;1321;48.690;9.022;2023-07-16T11:26:48;12.50;;;12.10;;
2622;SDS011;1321;48.690;9.022;2023-07-16T11:29:52;11.90;;;11.60;;
2622;SDS011;1321;48.690;9.022;2023-07-16T11:32:29;11.80;;;10.90;;
2622;SDS011;1321;48.690;9.022;2023-07-16T11:34:59;11.67;;;11.13;;
2622;SDS011;1321;48.690;9.022;2023-07-16T11:37:29;11.70;;;11.30;;
2622;SDS011;1321;48.690;9.022;2023-07-16T11:40:00;11.53;;;11.17;;
2622;SDS011;1321;48.690;9.022;2023-07-16T11:42:35;11.73;;;11.33;;
2622;SDS011;1321;48.690;9.022;2023-07-16T11:48:22;11.37;;;10.90;;
2622;SDS011;1321;48.690;9.022;2023-07-16T11:50:54;11.50;;;11.20;;
2622;SDS011;1321;48.690;9.022;2023-07-16T11:53:23;11.20;;;10.80;;
2622;SDS011;1321;48.690;9.022;2023-07-16T11:59:13;11.03;;;10.63;;
2622;SDS011;1321;48.690;9.022;2023-07-16T12:01:49;12.37;;;11.77;;
2622;SDS011;1321;48.690;9.022;2023-07-16T12:04:19;11.93;;;11.40;;
2622;SDS011;1321;48.690;9.022;2023-07-16T12:06:47;11.70;;;11.30;;
2622;SDS011;1321;48.690;9.022;2023-07-16T12:09:15;11.37;;;11.00;;
2622;SDS011;1321;48.690;9.022;2023-07-16T12:11:44;11.50;;;11.10;;
2622;SDS011;1321;48.690;9.022;2023-07-16T12:14:12;11.70;;;11.30;;
2622;SDS011;1321;48.690;9.022;2023-07-16T12:21:08;11.17;;;10.87;;
2622;SDS011;1321;48.690;9.022;2023-07-16T12:27:53;11.40;;;11.07;;
2622;SDS011;1321;48.690;9.022;2023-07-16T12:31:28;11.20;;;10.90;;
2622;SDS011;1321;48.690;9.022;2023-07-16T12:38:04;10.87;;;10.57;;
2622;SDS011;1321;48.690;9.022;2023-07-16T12:48:17;11.50;;;10.80;;
2622;SDS011;1321;48.690;9.022;2023-07-16T12:52:00;12.13;;;11.83;;
2622;SDS011;1321;48.690;9.022;2023-07-16T13:04:23;11.07;;;10.77;;
2622;SDS011;1321;48.690;9.022;2023-07-16T13:06:54;11.20;;;10.80;;
2622;SDS011;1321;48.690;9.022;2023-07-16T13:09:22;10.93;;;10.63;;
2622;SDS011;1321;48.690;9.022;2023-07-16T13:11:50;11.67;;;11.20;;
2622;SDS011;1321;48.690;9.022;2023-07-16T13:14:20;11.33;;;11.00;;
2622;SDS011;1321;48.690;9.022;2023-07-16T13:16:48;11.33;;;10.93;;
2622;SDS011;1321;48.690;9.022;2023-07-16T13:19:16;11.17;;;10.87;;
2622;SDS011;1321;48.690;9.022;2023-07-16T13:21:44;11.30;;;11.00;;
2622;SDS011;1321;48.690;9.022;2023-07-16T13:24:13;11.30;;;10.90;;
2622;SDS011;1321;48.690;9.022;2023-07-16T13:26:41;11.67;;;11.27;;
2622;SDS011;1321;48.690;9.022;2023-07-16T13:29:12;11.40;;;11.10;;
2622;SDS011;1321;48.690;9.022;2023-07-16T13:31:42;10.90;;;10.50;;
2622;SDS011;1321;48.690;9.022;2023-07-16T13:34:10;11.97;;;11.50;;
2622;SDS011;1321;48.690;9.022;2023-07-16T13:36:38;10.80;;;10.40;;
2622;SDS011;1321;48.690;9.022;2023-07-16T13:39:06;10.53;;;10.27;;
2622;SDS011;1321;48.690;9.022;2023-07-16T13:41:34;11.33;;;10.93;;
2622;SDS011;1321;48.690;9.022;2023-07-16T13:44:02;12.10;;;11.50;;
2622;SDS011;1321;48.690;9.022;2023-07-16T13:46:31;10.73;;;10.40;;
2622;SDS011;1321;48.690;9.022;2023-07-16T13:49:00;11.13;;;10.67;;
2622;SDS011;1321;48.690;9.022;2023-07-16T13:51:28;10.63;;;10.30;;
2622;SDS011;1321;48.690;9.022;2023-07-16T13:53:57;10.27;;;10.07;;
2622;SDS011;1321;48.690;9.022;2023-07-16T13:56:25;12.07;;;11.57;;
2622;SDS011;1321;48.690;9.022;2023-07-16T13:58:53;11.40;;;10.90;;
2622;SDS011;1321;48.690;9.022;2023-07-16T14:01:21;11.70;;;11.30;;
2622;SDS011;1321;48.690;9.022;2023-07-16T14:03:50;11.87;;;10.77;;
2622;SDS011;1321;48.690;9.022;2023-07-16T14:06:20;10.77;;;10.47;;
2622;SDS011;1321;48.690;9.022;2023-07-16T14:08:48;11.37;;;10.97;;
2622;SDS011;1321;48.690;9.022;2023-07-16T14:11:17;11.63;;;11.13;;
2622;SDS011;1321;48.690;9.022;2023-07-16T14:13:46;11.17;;;10.77;;
2622;SDS011;1321;48.690;9.022;2023-07-16T14:16:17;10.40;;;10.10;;
2622;SDS011;1321;48.690;9.022;2023-07-16T14:18:48;11.03;;;10.73;;
2622;SDS011;1321;48.690;9.022;2023-07-16T14:21:17;10.50;;;10.20;;
2622;SDS011;1321;48.690;9.022;2023-07-16T14:23:47;11.37;;;10.97;;
2622;SDS011;1321;48.690;9.022;2023-07-16T14:26:15;11.30;;;10.90;;
2622;SDS011;1321;48.690;9.022;2023-07-16T14:28:44;11.33;;;10.83;;
2622;SDS011;1321;48.690;9.022;2023-07-16T14:31:12;10.63;;;10.23;;
2622;SDS011;1321;48.690;9.022;2023-07-16T14:33:40;10.57;;;10.17;;
2622;SDS011;1321;48.690;9.022;2023-07-16T14:36:08;10.10;;;9.80;;
2622;SDS011;1321;48.690;9.022;2023-07-16T14:38:36;10.60;;;10.20;;
2622;SDS011;1321;48.690;9.022;2023-07-16T14:41:06;10.27;;;9.97;;
2622;SDS011;1321;48.690;9.022;2023-07-16T14:43:34;10.93;;;10.53;;
2622;SDS011;1321;48.690;9.022;2023-07-16T14:46:02;11.57;;;11.07;;
2622;SDS011;1321;48.690;9.022;2023-07-16T14:48:30;10.77;;;10.27;;
2622;SDS011;1321;48.690;9.022;2023-07-16T14:50:58;12.20;;;11.60;;
2622;SDS011;1321;48.690;9.022;2023-07-16T14:53:26;11.40;;;10.83;;
2622;SDS011;1321;48.690;9.022;2023-07-16T14:55:55;11.10;;;10.70;;
2622;SDS011;1321;48.690;9.022;2023-07-16T14:58:24;10.57;;;10.17;;
2622;SDS011;1321;48.690;9.022;2023-07-16T15:00:52;11.80;;;11.30;;
2622;SDS011;1321;48.690;9.022;2023-07-16T15:03:21;10.73;;;10.43;;
2622;SDS011;1321;48.690;9.022;2023-07-16T15:05:55;10.50;;;10.30;;
2622;SDS011;1321;48.690;9.022;2023-07-16T15:08:23;11.00;;;10.60;;
2622;SDS011;1321;48.690;9.022;2023-07-16T15:10:53;10.80;;;10.40;;
2622;SDS011;1321;48.690;9.022;2023-07-16T15:13:21;10.47;;;10.17;;
2622;SDS011;1321;48.690;9.022;2023-07-16T15:15:53;10.90;;;10.50;;
2622;SDS011;1321;48.690;9.022;2023-07-16T15:18:21;10.43;;;10.00;;
2622;SDS011;1321;48.690;9.022;2023-07-16T15:20:49;11.03;;;10.53;;
2622;SDS011;1321;48.690;9.022;2023-07-16T15:23:22;11.50;;;10.70;;
2622;SDS011;1321;48.690;9.022;2023-07-16T15:25:51;10.67;;;10.37;;
2622;SDS011;1321;48.690;9.022;2023-07-16T15:28:19;10.97;;;10.47;;
2622;SDS011;1321;48.690;9.022;2023-07-16T15:30:48;12.63;;;12.13;;
2622;SDS011;1321;48.690;9.022;2023-07-16T15:33:17;11.70;;;11.40;;
2622;SDS011;1321;48.690;9.022;2023-07-16T15:35:45;13.03;;;12.43;;
2622;SDS011;1321;48.690;9.022;2023-07-16T15:38:13;13.50;;;12.50;;
2622;SDS011;1321;48.690;9.022;2023-07-16T15:40:41;13.13;;;12.73;;
2622;SDS011;1321;48.690;9.022;2023-07-16T15:43:12;12.37;;;11.87;;
2622;SDS011;1321;48.690;9.022;2023-07-16T15:45:41;13.27;;;12.73;;
2622;SDS011;1321;48.690;9.022;2023-07-16T15:48:09;12.48;;;12.18;;
2622;SDS011;1321;48.690;9.022;2023-07-16T15:50:39;12.50;;;12.00;;
2622;SDS011;1321;48.690;9.022;2023-07-16T15:53:08;12.50;;;11.90;;
2622;SDS011;1321;48.690;9.022;2023-07-16T15:55:36;11.97;;;11.47;;
2622;SDS011;1321;48.690;9.022;2023-07-16T15:58:04;11.53;;;11.13;;
2622;SDS011;1321;48.690;9.022;2023-07-16T16:00:32;11.27;;;10.87;;
2622;SDS011;1321;48.690;9.022;2023-07-16T16:03:00;11.50;;;11.10;;
2622;SDS011;1321;48.690;9.022;2023-07-16T16:05:29;11.20;;;10.90;;
2622;SDS011;1321;48.690;9.022;2023-07-16T16:08:13;11.97;;;11.47;;
2622;SDS011;1321;48.690;9.022;2023-07-16T16:10:42;11.23;;;10.73;;
2622;SDS011;1321;48.690;9.022;2023-07-16T16:13:13;11.30;;;11.00;;
2622;SDS011;1321;48.690;9.022;2023-07-16T16:15:42;13.20;;;12.70;;
2622;SDS011;1321;48.690;9.022;2023-07-16T16:18:10;12.00;;;11.50;;
2622;SDS011;1321;48.690;9.022;2023-07-16T16:20:40;11.83;;;11.33;;
2622;SDS011;1321;48.690;9.022;2023-07-16T16:23:09;11.90;;;11.60;;
2622;SDS011;1321;48.690;9.022;2023-07-16T16:25:39;11.60;;;11.30;;
2622;SDS011;1321;48.690;9.022;2023-07-16T16:28:08;12.13;;;11.73;;
2622;SDS011;1321;48.690;9.022;2023-07-16T16:30:39;12.27;;;11.93;;